sensor_id;sensor_type;location;lat;lon;timestamp;pressure;altitude;pressure_sealevel;temperature;humidity
39295;BME280;52361;52.100;5.248;2023-03-19T00:00:07;100951.0;;;13.68;100.0
39295;BME280;52361;52.100;5.248;2023-03-19T00:03:20;100948.0;;;13.6;100.0
39295;BME280;52361;52.100;5.248;2023-03-19T00:04:56;100949.0;;;13.71;100.0
39295;BME280;52361;52.100;5.248;2023-03-19T00:06:33;100948.0;;;13.68;100.0
39295;BME280;52361;52.100;5.248;2023-03-19T00:09:46;100949.0;;;13.6;100.0
39295;BME280;52361;52.100;5.248;2023-03-19T00:11:22;100951.0;;;13.68;100.0
39295;BME280;52361;52.100;5.248;2023-03-19T00:12:58;100948.0;;;13.68;100.0
39295;BME280;52361;52.100;5.248;2023-03-19T00:16:10;100951.0;;;13.68;100.0
39295;BME280;52361;52.100;5.248;2023-03-19T00:17:46;100953.0;;;13.63;100.0
39295;BME280;52361;52.100;5.248;2023-03-19T00:20:58;100961.0;;;13.6;100.0
39295;BME280;52361;52.100;5.248;2023-03-19T00:24:11;100959.0;;;13.6;100.0
39295;BME280;52361;52.100;5.248;2023-03-19T00:25:47;100967.0;;;13.48;100.0
39295;BME280;52361;52.100;5.248;2023-03-19T00:27:23;100965.0;;;13.43;100.0
39295;BME280;52361;52.100;5.248;2023-03-19T00:30:36;100967.0;;;13.4;100.0
39295;BME280;52361;52.100;5.248;2023-03-19T00:32:12;100967.0;;;13.38;100.0
39295;BME280;52361;52.100;5.248;2023-03-19T00:33:49;100971.0;;;13.4;100.0
39295;BME280;52361;52.100;5.248;2023-03-19T00:37:03;100971.0;;;13.4;100.0
39295;BME280;52361;52.100;5.248;2023-03-19T00:38:39;100970.0;;;13.31;100.0
39295;BME280;52361;52.100;5.248;2023-03-19T00:40:15;100971.0;;;13.41;100.0
39295;BME280;52361;52.100;5.248;2023-03-19T00:41:52;100966.0;;;13.3;100.0
39295;BME280;52361;52.100;5.248;2023-03-19T00:45:05;100970.0;;;13.29;100.0
39295;BME280;52361;52.100;5.248;2023-03-19T00:46:42;100971.0;;;13.29;100.0
39295;BME280;52361;52.100;5.248;2023-03-19T00:48:20;100970.0;;;13.38;100.0
39295;BME280;52361;52.100;5.248;2023-03-19T00:51:33;100973.0;;;13.32;100.0
39295;BME280;52361;52.100;5.248;2023-03-19T00:53:09;100975.0;;;13.36;100.0
39295;BME280;52361;52.100;5.248;2023-03-19T00:54:46;100973.0;;;13.37;100.0
39295;BME280;52361;52.100;5.248;2023-03-19T00:57:58;100971.0;;;13.28;100.0
39295;BME280;52361;52.100;5.248;2023-03-19T00:59:34;100969.0;;;13.2;100.0
39295;BME280;52361;52.100;5.248;2023-03-19T01:01:13;100972.0;;;13.21;100.0
39295;BME280;52361;52.100;5.248;2023-03-19T01:02:51;100971.0;;;13.14;100.0
39295;BME280;52361;52.100;5.248;2023-03-19T01:06:05;100975.0;;;13.1;100.0
39295;BME280;52361;52.100;5.248;2023-03-19T01:07:41;100976.0;;;13.05;100.0
39295;BME280;52361;52.100;5.248;2023-03-19T01:09:18;100978.0;;;13.09;100.0
39295;BME280;52361;52.100;5.248;2023-03-19T01:12:38;100978.0;;;13.04;100.0
39295;BME280;52361;52.100;5.248;2023-03-19T01:14:15;100972.0;;;12.99;100.0
39295;BME280;52361;52.100;5.248;2023-03-19T01:15:52;100975.0;;;12.95;100.0
39295;BME280;52361;52.100;5.248;2023-03-19T01:17:28;100975.0;;;12.86;100.0
39295;BME280;52361;52.100;5.248;2023-03-19T01:20:40;100980.0;;;12.94;100.0
39295;BME280;52361;52.100;5.248;2023-03-19T01:22:18;100980.0;;;12.82;100.0
39295;BME280;52361;52.100;5.248;2023-03-19T01:23:55;100980.0;;;12.92;100.0
39295;BME280;52361;52.100;5.248;2023-03-19T01:27:10;100980.0;;;12.91;100.0
39295;BME280;52361;52.100;5.248;2023-03-19T01:28:47;100978.0;;;12.95;100.0
39295;BME280;52361;52.100;5.248;2023-03-19T01:30:23;100983.0;;;13.02;100.0
39295;BME280;52361;52.100;5.248;2023-03-19T01:33:35;100984.0;;;13.11;100.0
39295;BME280;52361;52.100;5.248;2023-03-19T01:35:11;100981.0;;;13.17;100.0
39295;BME280;52361;52.100;5.248;2023-03-19T01:36:48;100978.0;;;13.14;100.0
39295;BME280;52361;52.100;5.248;2023-03-19T01:38:25;100980.0;;;13.1;100.0
39295;BME280;52361;52.100;5.248;2023-03-19T01:41:39;100980.0;;;13.14;100.0
39295;BME280;52361;52.100;5.248;2023-03-19T01:43:18;100976.0;;;13.17;100.0
39295;BME280;52361;52.100;5.248;2023-03-19T01:44:55;100978.0;;;13.18;100.0
39295;BME280;52361;52.100;5.248;2023-03-19T01:48:18;100975.0;;;13.24;100.0
39295;BME280;52361;52.100;5.248;2023-03-19T01:49:59;100977.0;;;13.17;100.0
39295;BME280;52361;52.100;5.248;2023-03-19T01:51:40;100982.0;;;13.26;100.0
39295;BME280;52361;52.100;5.248;2023-03-19T01:53:18;100980.0;;;13.22;100.0
39295;BME280;52361;52.100;5.248;2023-03-19T01:56:37;100978.0;;;13.22;100.0
39295;BME280;52361;52.100;5.248;2023-03-19T01:58:16;100978.0;;;13.2;100.0
39295;BME280;52361;52.100;5.248;2023-03-19T01:59:56;100977.0;;;13.24;100.0
39295;BME280;52361;52.100;5.248;2023-03-19T02:01:40;100977.0;;;13.19;100.0
39295;BME280;52361;52.100;5.248;2023-03-19T02:05:02;100981.0;;;13.14;100.0
39295;BME280;52361;52.100;5.248;2023-03-19T02:06:41;100980.0;;;13.15;100.0
39295;BME280;52361;52.100;5.248;2023-03-19T02:08:20;100984.0;;;13.09;100.0
39295;BME280;52361;52.100;5.248;2023-03-19T02:10:00;100989.0;;;13.1;100.0
39295;BME280;52361;52.100;5.248;2023-03-19T02:13:14;100984.0;;;13.01;100.0
39295;BME280;52361;52.100;5.248;2023-03-19T02:14:51;100988.0;;;13.07;100.0
39295;BME280;52361;52.100;5.248;2023-03-19T02:16:27;100994.0;;;13.11;100.0
39295;BME280;52361;52.100;5.248;2023-03-19T02:18:05;100993.0;;;13.06;100.0
39295;BME280;52361;52.100;5.248;2023-03-19T02:21:26;100991.0;;;13.14;100.0
39295;BME280;52361;52.100;5.248;2023-03-19T02:23:11;100990.0;;;13.13;100.0
39295;BME280;52361;52.100;5.248;2023-03-19T02:24:52;100985.0;;;13.16;100.0
39295;BME280;52361;52.100;5.248;2023-03-19T02:26:32;100989.0;;;13.16;100.0
39295;BME280;52361;52.100;5.248;2023-03-19T02:29:46;100988.0;;;13.1;100.0
39295;BME280;52361;52.100;5.248;2023-03-19T02:31:22;100982.0;;;12.97;100.0
39295;BME280;52361;52.100;5.248;2023-03-19T02:32:59;100984.0;;;12.89;100.0
39295;BME280;52361;52.100;5.248;2023-03-19T02:36:16;100985.0;;;12.89;100.0
39295;BME280;52361;52.100;5.248;2023-03-19T02:37:54;100990.0;;;12.91;100.0
39295;BME280;52361;52.100;5.248;2023-03-19T02:39:33;100989.0;;;12.91;100.0
39295;BME280;52361;52.100;5.248;2023-03-19T02:41:13;100989.0;;;12.78;100.0
39295;BME280;52361;52.100;5.248;2023-03-19T02:44:26;100992.0;;;12.74;100.0
39295;BME280;52361;52.100;5.248;2023-03-19T02:46:06;100992.0;;;12.76;100.0
39295;BME280;52361;52.100;5.248;2023-03-19T02:47:44;100990.0;;;12.87;100.0
39295;BME280;52361;52.100;5.248;2023-03-19T02:50:56;100993.0;;;12.78;100.0
39295;BME280;52361;52.100;5.248;2023-03-19T02:52:34;101000.0;;;12.69;100.0
39295;BME280;52361;52.100;5.248;2023-03-19T02:54:11;100996.0;;;12.69;100.0
39295;BME280;52361;52.100;5.248;2023-03-19T02:55:49;100995.0;;;12.65;100.0
39295;BME280;52361;52.100;5.248;2023-03-19T02:59:03;100997.0;;;12.72;100.0
39295;BME280;52361;52.100;5.248;2023-03-19T03:00:39;100999.0;;;12.65;100.0
39295;BME280;52361;52.100;5.248;2023-03-19T03:02:17;101002.0;;;12.54;100.0
39295;BME280;52361;52.100;5.248;2023-03-19T03:05:31;100998.0;;;12.65;100.0
39295;BME280;52361;52.100;5.248;2023-03-19T03:07:09;100995.0;;;12.6;100.0
39295;BME280;52361;52.100;5.248;2023-03-19T03:08:46;100994.0;;;12.58;100.0
39295;BME280;52361;52.100;5.248;2023-03-19T03:10:23;100995.0;;;12.65;100.0
39295;BME280;52361;52.100;5.248;2023-03-19T03:13:36;101000.0;;;12.59;100.0
39295;BME280;52361;52.100;5.248;2023-03-19T03:15:12;100997.0;;;12.68;100.0
39295;BME280;52361;52.100;5.248;2023-03-19T03:16:48;101001.0;;;12.61;100.0
39295;BME280;52361;52.100;5.248;2023-03-19T03:20:02;101002.0;;;12.72;100.0
39295;BME280;52361;52.100;5.248;2023-03-19T03:21:38;101002.0;;;12.74;100.0
39295;BME280;52361;52.100;5.248;2023-03-19T03:23:15;101000.0;;;12.59;100.0
39295;BME280;52361;52.100;5.248;2023-03-19T03:26:27;101000.0;;;12.59;100.0
39295;BME280;52361;52.100;5.248;2023-03-19T03:28:03;100999.0;;;12.71;100.0
39295;BME280;52361;52.100;5.248;2023-03-19T03:29:40;101001.0;;;12.44;100.0
39295;BME280;52361;52.100;5.248;2023-03-19T03:32:53;101003.0;;;12.36;100.0
39295;BME280;52361;52.100;5.248;2023-03-19T03:34:29;101003.0;;;12.51;100.0
39295;BME280;52361;52.100;5.248;2023-03-19T03:36:06;101003.0;;;12.55;100.0
39295;BME280;52361;52.100;5.248;2023-03-19T03:37:43;101003.0;;;12.38;100.0
39295;BME280;52361;52.100;5.248;2023-03-19T03:40:55;101000.0;;;12.39;100.0
39295;BME280;52361;52.100;5.248;2023-03-19T03:42:33;101008.0;;;12.48;100.0
39295;BME280;52361;52.100;5.248;2023-03-19T03:44:09;101011.0;;;12.49;100.0
39295;BME280;52361;52.100;5.248;2023-03-19T03:47:23;101013.0;;;12.37;100.0
39295;BME280;52361;52.100;5.248;2023-03-19T03:48:59;101016.0;;;12.38;100.0
39295;BME280;52361;52.100;5.248;2023-03-19T03:50:36;101015.0;;;12.39;100.0
39295;BME280;52361;52.100;5.248;2023-03-19T03:52:14;101010.0;;;12.42;100.0
39295;BME280;52361;52.100;5.248;2023-03-19T03:55:25;101010.0;;;12.31;100.0
39295;BME280;52361;52.100;5.248;2023-03-19T03:57:03;101006.0;;;12.36;100.0
39295;BME280;52361;52.100;5.248;2023-03-19T03:58:40;101006.0;;;12.32;100.0
39295;BME280;52361;52.100;5.248;2023-03-19T04:01:53;101003.0;;;12.32;100.0
39295;BME280;52361;52.100;5.248;2023-03-19T04:03:29;101003.0;;;12.19;100.0
39295;BME280;52361;52.100;5.248;2023-03-19T04:05:06;101001.0;;;12.15;100.0
39295;BME280;52361;52.100;5.248;2023-03-19T04:08:19;101003.0;;;12.01;100.0
39295;BME280;52361;52.100;5.248;2023-03-19T04:09:56;101005.0;;;11.85;100.0
39295;BME280;52361;52.100;5.248;2023-03-19T04:11:33;101005.0;;;11.74;100.0
39295;BME280;52361;52.100;5.248;2023-03-19T04:13:11;101000.0;;;11.65;100.0
39295;BME280;52361;52.100;5.248;2023-03-19T04:16:24;100999.0;;;11.68;100.0
39295;BME280;52361;52.100;5.248;2023-03-19T04:18:01;101002.0;;;11.83;100.0
39295;BME280;52361;52.100;5.248;2023-03-19T04:19:38;101005.0;;;11.67;100.0
39295;BME280;52361;52.100;5.248;2023-03-19T04:22:51;101006.0;;;11.59;100.0
39295;BME280;52361;52.100;5.248;2023-03-19T04:24:27;101002.0;;;11.54;100.0
39295;BME280;52361;52.100;5.248;2023-03-19T04:26:05;100997.0;;;11.66;100.0
39295;BME280;52361;52.100;5.248;2023-03-19T04:29:17;101001.0;;;11.7;100.0
39295;BME280;52361;52.100;5.248;2023-03-19T04:30:57;101003.0;;;11.45;100.0
39295;BME280;52361;52.100;5.248;2023-03-19T04:32:35;100999.0;;;11.3;100.0
39295;BME280;52361;52.100;5.248;2023-03-19T04:34:11;101003.0;;;11.29;100.0
39295;BME280;52361;52.100;5.248;2023-03-19T04:37:23;101000.0;;;11.28;100.0
39295;BME280;52361;52.100;5.248;2023-03-19T04:38:59;101003.0;;;11.28;100.0
39295;BME280;52361;52.100;5.248;2023-03-19T04:40:35;101005.0;;;11.25;100.0
39295;BME280;52361;52.100;5.248;2023-03-19T04:43:49;101010.0;;;11.39;100.0
39295;BME280;52361;52.100;5.248;2023-03-19T04:45:25;101008.0;;;11.21;100.0
39295;BME280;52361;52.100;5.248;2023-03-19T04:47:02;101006.0;;;11.23;100.0
39295;BME280;52361;52.100;5.248;2023-03-19T04:50:14;101006.0;;;11.31;100.0
39295;BME280;52361;52.100;5.248;2023-03-19T04:51:50;101006.0;;;11.29;100.0
39295;BME280;52361;52.100;5.248;2023-03-19T04:53:26;101009.0;;;11.19;100.0
39295;BME280;52361;52.100;5.248;2023-03-19T04:55:05;101013.0;;;11.15;100.0
39295;BME280;52361;52.100;5.248;2023-03-19T04:58:20;101017.0;;;10.98;100.0
39295;BME280;52361;52.100;5.248;2023-03-19T04:59:57;101015.0;;;10.84;100.0
39295;BME280;52361;52.100;5.248;2023-03-19T05:01:33;101027.0;;;11.01;100.0
39295;BME280;52361;52.100;5.248;2023-03-19T05:04:45;101030.0;;;10.94;100.0
39295;BME280;52361;52.100;5.248;2023-03-19T05:06:22;101032.0;;;10.93;100.0
39295;BME280;52361;52.100;5.248;2023-03-19T05:07:58;101034.0;;;10.78;100.0
39295;BME280;52361;52.100;5.248;2023-03-19T05:11:11;101038.0;;;10.78;100.0
39295;BME280;52361;52.100;5.248;2023-03-19T05:12:47;101042.0;;;10.83;100.0
39295;BME280;52361;52.100;5.248;2023-03-19T05:14:24;101042.0;;;10.68;100.0
39295;BME280;52361;52.100;5.248;2023-03-19T05:16:00;101045.0;;;10.78;100.0
39295;BME280;52361;52.100;5.248;2023-03-19T05:19:13;101047.0;;;10.79;100.0
39295;BME280;52361;52.100;5.248;2023-03-19T05:20:49;101049.0;;;10.84;100.0
39295;BME280;52361;52.100;5.248;2023-03-19T05:22:27;101055.0;;;10.75;100.0
39295;BME280;52361;52.100;5.248;2023-03-19T05:27:17;101051.0;;;10.61;100.0
39295;BME280;52361;52.100;5.248;2023-03-19T05:28:54;101055.0;;;10.52;100.0
39295;BME280;52361;52.100;5.248;2023-03-19T05:32:07;101060.0;;;10.41;100.0
39295;BME280;52361;52.100;5.248;2023-03-19T05:33:44;101063.0;;;10.28;100.0
39295;BME280;52361;52.100;5.248;2023-03-19T05:35:21;101058.0;;;10.35;100.0
39295;BME280;52361;52.100;5.248;2023-03-19T05:36:57;101060.0;;;10.44;100.0
39295;BME280;52361;52.100;5.248;2023-03-19T05:40:11;101062.0;;;10.47;100.0
39295;BME280;52361;52.100;5.248;2023-03-19T05:41:48;101066.0;;;10.46;100.0
39295;BME280;52361;52.100;5.248;2023-03-19T05:43:25;101075.0;;;10.28;100.0
39295;BME280;52361;52.100;5.248;2023-03-19T05:46:39;101080.0;;;10.4;100.0
39295;BME280;52361;52.100;5.248;2023-03-19T05:48:16;101080.0;;;10.58;100.0
39295;BME280;52361;52.100;5.248;2023-03-19T05:49:52;101085.0;;;10.65;100.0
39295;BME280;52361;52.100;5.248;2023-03-19T05:51:29;101094.0;;;10.63;100.0
39295;BME280;52361;52.100;5.248;2023-03-19T05:54:44;101090.0;;;10.6;100.0
39295;BME280;52361;52.100;5.248;2023-03-19T05:56:20;101093.0;;;10.67;100.0
39295;BME280;52361;52.100;5.248;2023-03-19T05:57:56;101095.0;;;10.76;100.0
39295;BME280;52361;52.100;5.248;2023-03-19T06:01:09;101092.0;;;10.75;100.0
39295;BME280;52361;52.100;5.248;2023-03-19T06:02:46;101094.0;;;10.81;100.0
39295;BME280;52361;52.100;5.248;2023-03-19T06:04:22;101090.0;;;10.89;100.0
39295;BME280;52361;52.100;5.248;2023-03-19T06:07:35;101094.0;;;10.9;100.0
39295;BME280;52361;52.100;5.248;2023-03-19T06:09:12;101090.0;;;10.94;100.0
39295;BME280;52361;52.100;5.248;2023-03-19T06:10:48;101093.0;;;10.96;100.0
39295;BME280;52361;52.100;5.248;2023-03-19T06:15:41;101103.0;;;10.91;100.0
39295;BME280;52361;52.100;5.248;2023-03-19T06:17:18;101102.0;;;10.99;100.0
39295;BME280;52361;52.100;5.248;2023-03-19T06:18:54;101107.0;;;11.04;100.0
39295;BME280;52361;52.100;5.248;2023-03-19T06:22:07;101112.0;;;11.08;100.0
39295;BME280;52361;52.100;5.248;2023-03-19T06:23:44;101110.0;;;11.11;100.0
39295;BME280;52361;52.100;5.248;2023-03-19T06:25:20;101113.0;;;11.13;100.0
39295;BME280;52361;52.100;5.248;2023-03-19T06:30:12;101116.0;;;10.95;100.0
39295;BME280;52361;52.100;5.248;2023-03-19T06:31:48;101119.0;;;11.13;100.0
39295;BME280;52361;52.100;5.248;2023-03-19T06:33:25;101117.0;;;11.21;100.0
39295;BME280;52361;52.100;5.248;2023-03-19T06:36:40;101117.0;;;11.03;100.0
39295;BME280;52361;52.100;5.248;2023-03-19T06:38:16;101122.0;;;10.99;100.0
39295;BME280;52361;52.100;5.248;2023-03-19T06:39:53;101119.0;;;11.02;100.0
39295;BME280;52361;52.100;5.248;2023-03-19T06:43:06;101128.0;;;11.07;100.0
39295;BME280;52361;52.100;5.248;2023-03-19T06:44:42;101131.0;;;11.08;100.0
39295;BME280;52361;52.100;5.248;2023-03-19T06:46:19;101133.0;;;11.07;100.0
39295;BME280;52361;52.100;5.248;2023-03-19T06:47:55;101141.0;;;11.08;100.0
39295;BME280;52361;52.100;5.248;2023-03-19T06:51:09;101149.0;;;11.15;100.0
39295;BME280;52361;52.100;5.248;2023-03-19T06:52:45;101149.0;;;11.19;100.0
39295;BME280;52361;52.100;5.248;2023-03-19T06:54:22;101148.0;;;11.2;100.0
39295;BME280;52361;52.100;5.248;2023-03-19T06:57:36;101149.0;;;11.23;100.0
39295;BME280;52361;52.100;5.248;2023-03-19T06:59:12;101155.0;;;11.17;100.0
39295;BME280;52361;52.100;5.248;2023-03-19T07:00:48;101155.0;;;11.2;100.0
39295;BME280;52361;52.100;5.248;2023-03-19T07:04:01;101150.0;;;11.19;100.0
39295;BME280;52361;52.100;5.248;2023-03-19T07:05:39;101153.0;;;11.2;100.0
39295;BME280;52361;52.100;5.248;2023-03-19T07:07:15;101157.0;;;11.21;100.0
39295;BME280;52361;52.100;5.248;2023-03-19T07:08:53;101162.0;;;11.27;100.0
39295;BME280;52361;52.100;5.248;2023-03-19T07:12:07;101164.0;;;11.28;100.0
39295;BME280;52361;52.100;5.248;2023-03-19T07:13:44;101164.0;;;11.27;100.0
39295;BME280;52361;52.100;5.248;2023-03-19T07:15:21;101163.0;;;11.23;100.0
39295;BME280;52361;52.100;5.248;2023-03-19T07:18:34;101163.0;;;11.15;100.0
39295;BME280;52361;52.100;5.248;2023-03-19T07:20:12;101169.0;;;11.25;100.0
39295;BME280;52361;52.100;5.248;2023-03-19T07:21:50;101170.0;;;11.32;100.0
39295;BME280;52361;52.100;5.248;2023-03-19T07:25:03;101177.0;;;11.31;100.0
39295;BME280;52361;52.100;5.248;2023-03-19T07:26:39;101180.0;;;11.14;100.0
39295;BME280;52361;52.100;5.248;2023-03-19T07:28:16;101187.0;;;11.22;100.0
39295;BME280;52361;52.100;5.248;2023-03-19T07:29:53;101191.0;;;11.28;100.0
39295;BME280;52361;52.100;5.248;2023-03-19T07:33:06;101190.0;;;11.2;100.0
39295;BME280;52361;52.100;5.248;2023-03-19T07:34:43;101197.0;;;11.29;100.0
39295;BME280;52361;52.100;5.248;2023-03-19T07:36:19;101195.0;;;11.22;100.0
39295;BME280;52361;52.100;5.248;2023-03-19T07:39:32;101201.0;;;11.26;100.0
39295;BME280;52361;52.100;5.248;2023-03-19T07:41:09;101202.0;;;11.34;100.0
39295;BME280;52361;52.100;5.248;2023-03-19T07:42:45;101203.0;;;11.22;100.0
39295;BME280;52361;52.100;5.248;2023-03-19T07:45:59;101205.0;;;11.17;100.0
39295;BME280;52361;52.100;5.248;2023-03-19T07:47:36;101207.0;;;11.31;100.0
39295;BME280;52361;52.100;5.248;2023-03-19T07:49:12;101207.0;;;11.32;100.0
39295;BME280;52361;52.100;5.248;2023-03-19T07:54:03;101213.0;;;11.3;100.0
39295;BME280;52361;52.100;5.248;2023-03-19T07:55:41;101213.0;;;11.2;100.0
39295;BME280;52361;52.100;5.248;2023-03-19T07:57:18;101213.0;;;11.21;100.0
39295;BME280;52361;52.100;5.248;2023-03-19T08:00:31;101217.0;;;11.16;100.0
39295;BME280;52361;52.100;5.248;2023-03-19T08:02:09;101216.0;;;11.14;100.0
39295;BME280;52361;52.100;5.248;2023-03-19T08:03:46;101218.0;;;11.11;100.0
39295;BME280;52361;52.100;5.248;2023-03-19T08:05:22;101215.0;;;11.32;100.0
39295;BME280;52361;52.100;5.248;2023-03-19T08:08:36;101224.0;;;11.32;100.0
39295;BME280;52361;52.100;5.248;2023-03-19T08:10:13;101227.0;;;11.33;100.0
39295;BME280;52361;52.100;5.248;2023-03-19T08:11:49;101230.0;;;11.34;100.0
39295;BME280;52361;52.100;5.248;2023-03-19T08:15:03;101233.0;;;11.29;100.0
39295;BME280;52361;52.100;5.248;2023-03-19T08:16:40;101230.0;;;11.34;100.0
39295;BME280;52361;52.100;5.248;2023-03-19T08:18:16;101236.0;;;11.21;100.0
39295;BME280;52361;52.100;5.248;2023-03-19T08:21:28;101234.0;;;11.29;100.0
39295;BME280;52361;52.100;5.248;2023-03-19T08:23:04;101232.0;;;11.4;100.0
39295;BME280;52361;52.100;5.248;2023-03-19T08:24:41;101236.0;;;11.49;100.0
39295;BME280;52361;52.100;5.248;2023-03-19T08:26:18;101240.0;;;11.45;100.0
39295;BME280;52361;52.100;5.248;2023-03-19T08:29:30;101239.0;;;11.36;100.0
39295;BME280;52361;52.100;5.248;2023-03-19T08:31:07;101239.0;;;11.53;100.0
39295;BME280;52361;52.100;5.248;2023-03-19T08:32:44;101242.0;;;11.55;100.0
39295;BME280;52361;52.100;5.248;2023-03-19T08:36:04;101243.0;;;11.67;100.0
39295;BME280;52361;52.100;5.248;2023-03-19T08:37:41;101242.0;;;11.65;100.0
39295;BME280;52361;52.100;5.248;2023-03-19T08:39:18;101247.0;;;11.56;100.0
39295;BME280;52361;52.100;5.248;2023-03-19T08:40:54;101251.0;;;11.63;100.0
39295;BME280;52361;52.100;5.248;2023-03-19T08:44:07;101253.0;;;11.72;100.0
39295;BME280;52361;52.100;5.248;2023-03-19T08:45:44;101257.0;;;11.73;100.0
39295;BME280;52361;52.100;5.248;2023-03-19T08:47:21;101258.0;;;11.83;100.0
39295;BME280;52361;52.100;5.248;2023-03-19T08:50:35;101267.0;;;11.82;100.0
39295;BME280;52361;52.100;5.248;2023-03-19T08:52:12;101265.0;;;11.71;100.0
39295;BME280;52361;52.100;5.248;2023-03-19T08:53:48;101268.0;;;11.87;100.0
39295;BME280;52361;52.100;5.248;2023-03-19T08:57:00;101269.0;;;11.86;100.0
39295;BME280;52361;52.100;5.248;2023-03-19T08:58:36;101276.0;;;11.88;100.0
39295;BME280;52361;52.100;5.248;2023-03-19T09:00:14;101277.0;;;11.9;100.0
39295;BME280;52361;52.100;5.248;2023-03-19T09:01:52;101278.0;;;11.94;100.0
39295;BME280;52361;52.100;5.248;2023-03-19T09:05:06;101274.0;;;11.93;100.0
39295;BME280;52361;52.100;5.248;2023-03-19T09:06:43;101284.0;;;11.82;100.0
39295;BME280;52361;52.100;5.248;2023-03-19T09:08:19;101287.0;;;11.8;100.0
39295;BME280;52361;52.100;5.248;2023-03-19T09:11:31;101284.0;;;11.79;100.0
39295;BME280;52361;52.100;5.248;2023-03-19T09:13:07;101286.0;;;11.72;100.0
39295;BME280;52361;52.100;5.248;2023-03-19T09:14:44;101290.0;;;11.71;100.0
39295;BME280;52361;52.100;5.248;2023-03-19T09:17:57;101290.0;;;11.72;100.0
39295;BME280;52361;52.100;5.248;2023-03-19T09:19:33;101291.0;;;11.78;100.0
39295;BME280;52361;52.100;5.248;2023-03-19T09:21:10;101294.0;;;11.75;100.0
39295;BME280;52361;52.100;5.248;2023-03-19T09:22:46;101301.0;;;11.44;100.0
39295;BME280;52361;52.100;5.248;2023-03-19T09:25:58;101298.0;;;11.34;100.0
39295;BME280;52361;52.100;5.248;2023-03-19T09:27:36;101298.0;;;11.19;100.0
39295;BME280;52361;52.100;5.248;2023-03-19T09:29:13;101300.0;;;11.29;100.0
39295;BME280;52361;52.100;5.248;2023-03-19T09:32:28;101299.0;;;11.43;100.0
39295;BME280;52361;52.100;5.248;2023-03-19T09:34:05;101305.0;;;11.62;100.0
39295;BME280;52361;52.100;5.248;2023-03-19T09:35:42;101307.0;;;11.65;100.0
39295;BME280;52361;52.100;5.248;2023-03-19T09:38:54;101309.0;;;11.59;100.0
39295;BME280;52361;52.100;5.248;2023-03-19T09:40:34;101313.0;;;11.69;100.0
39295;BME280;52361;52.100;5.248;2023-03-19T09:42:25;101314.0;;;11.6;100.0
39295;BME280;52361;52.100;5.248;2023-03-19T09:44:10;101312.0;;;11.59;100.0
39295;BME280;52361;52.100;5.248;2023-03-19T09:45:47;101317.0;;;11.65;100.0
39295;BME280;52361;52.100;5.248;2023-03-19T09:49:13;101319.0;;;11.64;100.0
39295;BME280;52361;52.100;5.248;2023-03-19T09:50:51;101324.0;;;11.82;100.0
39295;BME280;52361;52.100;5.248;2023-03-19T09:52:35;101330.0;;;11.84;100.0
39295;BME280;52361;52.100;5.248;2023-03-19T09:54:25;101328.0;;;11.89;100.0
39295;BME280;52361;52.100;5.248;2023-03-19T09:57:42;101330.0;;;11.76;100.0
39295;BME280;52361;52.100;5.248;2023-03-19T09:59:21;101332.0;;;11.6;100.0
39295;BME280;52361;52.100;5.248;2023-03-19T10:01:00;101340.0;;;11.84;100.0
39295;BME280;52361;52.100;5.248;2023-03-19T10:02:40;101341.0;;;11.78;100.0
39295;BME280;52361;52.100;5.248;2023-03-19T10:06:29;101346.0;;;11.77;100.0
39295;BME280;52361;52.100;5.248;2023-03-19T10:08:23;101346.0;;;11.82;100.0
39295;BME280;52361;52.100;5.248;2023-03-19T10:10:23;101347.0;;;11.94;100.0
39295;BME280;52361;52.100;5.248;2023-03-19T10:12:19;101346.0;;;11.89;100.0
39295;BME280;52361;52.100;5.248;2023-03-19T10:14:11;101349.0;;;11.76;100.0
39295;BME280;52361;52.100;5.248;2023-03-19T10:15:58;101351.0;;;11.66;100.0
39295;BME280;52361;52.100;5.248;2023-03-19T10:17:39;101351.0;;;11.63;100.0
39295;BME280;52361;52.100;5.248;2023-03-19T10:19:21;101353.0;;;11.48;100.0
39295;BME280;52361;52.100;5.248;2023-03-19T10:23:02;101352.0;;;11.54;100.0
39295;BME280;52361;52.100;5.248;2023-03-19T10:24:45;101355.0;;;11.68;100.0
39295;BME280;52361;52.100;5.248;2023-03-19T10:26:28;101355.0;;;11.73;100.0
39295;BME280;52361;52.100;5.248;2023-03-19T10:28:10;101360.0;;;11.66;100.0
39295;BME280;52361;52.100;5.248;2023-03-19T10:31:28;101365.0;;;11.78;100.0
39295;BME280;52361;52.100;5.248;2023-03-19T10:33:15;101358.0;;;11.73;100.0
39295;BME280;52361;52.100;5.248;2023-03-19T10:36:36;101356.0;;;11.96;100.0
39295;BME280;52361;52.100;5.248;2023-03-19T10:39:57;101355.0;;;11.96;100.0
39295;BME280;52361;52.100;5.248;2023-03-19T10:41:43;101366.0;;;11.91;100.0
39295;BME280;52361;52.100;5.248;2023-03-19T10:43:24;101365.0;;;12.11;100.0
39295;BME280;52361;52.100;5.248;2023-03-19T10:45:04;101365.0;;;12.14;100.0
39295;BME280;52361;52.100;5.248;2023-03-19T10:46:57;101365.0;;;12.05;100.0
39295;BME280;52361;52.100;5.248;2023-03-19T10:50:26;101373.0;;;12.15;100.0
39295;BME280;52361;52.100;5.248;2023-03-19T10:52:04;101376.0;;;12.07;100.0
39295;BME280;52361;52.100;5.248;2023-03-19T10:53:41;101380.0;;;12.07;100.0
39295;BME280;52361;52.100;5.248;2023-03-19T10:55:22;101387.0;;;12.15;100.0
39295;BME280;52361;52.100;5.248;2023-03-19T10:58:37;101389.0;;;12.09;100.0
39295;BME280;52361;52.100;5.248;2023-03-19T11:00:16;101389.0;;;12.27;100.0
39295;BME280;52361;52.100;5.248;2023-03-19T11:01:56;101392.0;;;12.16;100.0
39295;BME280;52361;52.100;5.248;2023-03-19T11:03:34;101396.0;;;11.97;100.0
39295;BME280;52361;52.100;5.248;2023-03-19T11:07:07;101403.0;;;12.08;100.0
39295;BME280;52361;52.100;5.248;2023-03-19T11:08:52;101406.0;;;11.98;100.0
39295;BME280;52361;52.100;5.248;2023-03-19T11:10:32;101411.0;;;12.11;100.0
39295;BME280;52361;52.100;5.248;2023-03-19T11:12:16;101410.0;;;12.17;100.0
39295;BME280;52361;52.100;5.248;2023-03-19T11:15:33;101403.0;;;11.97;100.0
39295;BME280;52361;52.100;5.248;2023-03-19T11:17:17;101408.0;;;12.08;100.0
39295;BME280;52361;52.100;5.248;2023-03-19T11:18:55;101405.0;;;12.22;100.0